mardi 3 juin 2014

ALERTE SPOTTING 03/06/14 (MàJ 05h00)

320 F-GHQE Air Corsica (blanc avec titre)
   XK4503/XK4502   11h50/12h55
 XK4505/XK4504   20h15/21h20

 
142 D-AWUE WDL
   A58230/A5651  08h15/08h45
 A5651/?  12h00/?

73H CN-RGN RAM (sticker 50th 737)
    AT662/AT663  12h15/13h15

E95 EC-LFZ Air Europa (sticker)
    UX1297/UX1298  16h40/17h4
 
73H LN-NOL Norwegian (dérive 6000th 737)
    DY1496/DY1497   19h50/20h30

73H D-ABME Air Berlin (couleur Oneworld)
   AB8156/AB8157 20h20/21h05

Manque les prévisions de certains AB/AH/AZ/BA/BE/IB/KM/TP/TU

*** Horaires en Heure Locale ***
Prévisions matinales soumises à modifications de dernières minutes.

Voir le log du mois pour la version 'définitive' de la journée: 
 http://www.airkalo.com/ORLYAVIATION/Logdumois.html

le TAF de la journée:


METAR: LFPO 030230Z 25003KT 9999 FEW040 SCT060 BKN096 13/11 Q1017
NOSIG=
TAF LONG: LFPO 022300Z 0300/0406 VRB02KT 9999 SCT040 BECMG 0307/0310
21005KT PROB40 TEMPO 0313/0319 4500 SHRA BKN030TCU TEMPO 0401/0406
3000 RA BKN012=